KIRS/IRS METAR and TAF weather

Enter ICAO airport designator
Station Type Date Time Source
KIRS METAR 2019/05/27 09:28 UTC NOAA

KIRS 270928Z AUTO 00000KT 1/4SM FG OVC003 14/13 A3007 RMK AO2


Station Type Date Time Source
KIRS Decoded METAR 2019/05/27 09:28 UTC NOAA

Sturgis, Kirsch Municipal Airport, MI, United States (KIRS) 41-48-46N 085-26-21W
May 27, 2019 - 05:28 AM EDT / 2019.05.27 0928 UTC
Wind: Calm:0
Visibility: 1/4 mile(s):0
Sky conditions: overcast
Weather: fog
Temperature: 57 F (14 C)
Dew Point: 55 F (13 C)
Relative Humidity: 93%
Pressure (altimeter): 30.07 in. Hg (1018 hPa)
ob: KIRS 270928Z AUTO 00000KT 1/4SM FG OVC003 14/13 A3007 RMK AO2
cycle: 9

Station Type Date Time Source
KIRS TAF UTC NOAA

Error!

Example: see airport list